createdAt,value
2023-03-17T00:00:57.759Z,15.20
2023-03-17T00:03:29.677Z,9.31
2023-03-17T00:06:00.586Z,12.35
2023-03-17T00:08:35.980Z,12.73
2023-03-17T00:11:14.709Z,9.88
2023-03-17T00:13:46.323Z,11.40
2023-03-17T00:16:25.307Z,13.30
2023-03-17T00:18:57.585Z,11.21
2023-03-17T00:21:32.322Z,14.06
2023-03-17T00:24:03.169Z,13.68
2023-03-17T00:26:33.513Z,15.58
2023-03-17T00:29:03.504Z,10.64
2023-03-17T00:31:35.270Z,19.38
2023-03-17T00:34:06.561Z,14.25
2023-03-17T00:36:37.423Z,13.11
2023-03-17T00:39:17.593Z,13.30
2023-03-17T00:41:44.956Z,16.15
2023-03-17T00:44:15.094Z,13.68
2023-03-17T00:46:46.482Z,15.77
2023-03-17T00:49:22.071Z,10.64
2023-03-17T00:51:52.709Z,10.64
2023-03-17T00:54:22.418Z,11.40
2023-03-17T00:56:52.840Z,13.87
2023-03-17T00:59:38.014Z,15.96
2023-03-17T01:02:13.031Z,12.54
2023-03-17T01:04:49.966Z,14.63
2023-03-17T01:07:24.275Z,12.92
2023-03-17T01:09:54.975Z,16.34
2023-03-17T01:12:24.850Z,12.54
2023-03-17T01:14:54.964Z,12.35
2023-03-17T01:17:24.829Z,14.25
2023-03-17T01:19:54.609Z,13.68
2023-03-17T01:22:24.475Z,15.58
2023-03-17T01:24:54.162Z,15.96
2023-03-17T01:27:24.620Z,14.25
2023-03-17T01:29:55.461Z,16.34
2023-03-17T01:32:25.780Z,15.20
2023-03-17T01:34:55.468Z,16.72
2023-03-17T01:37:23.996Z,12.16
2023-03-17T01:39:52.649Z,15.77
2023-03-17T01:42:20.927Z,13.68
2023-03-17T01:45:28.470Z,12.54
2023-03-17T01:47:59.161Z,17.29
2023-03-17T01:50:29.566Z,17.48
2023-03-17T01:52:59.740Z,15.01
2023-03-17T01:55:30.353Z,16.72
2023-03-17T01:58:00.470Z,14.44
2023-03-17T02:00:30.962Z,12.73
2023-03-17T02:03:01.249Z,13.49
2023-03-17T02:05:32.978Z,19.57
2023-03-17T02:08:03.234Z,12.35
2023-03-17T02:10:33.662Z,14.82
2023-03-17T02:13:06.058Z,15.39
2023-03-17T02:15:54.624Z,13.30
2023-03-17T02:18:24.358Z,13.30
2023-03-17T02:20:53.973Z,15.39
2023-03-17T02:23:24.642Z,15.96
2023-03-17T02:25:54.555Z,16.53
2023-03-17T02:28:30.900Z,18.62
2023-03-17T02:31:00.817Z,16.34
2023-03-17T02:33:30.846Z,19.00
2023-03-17T02:36:00.770Z,15.39
2023-03-17T02:38:30.855Z,23.56
2023-03-17T02:41:00.704Z,21.09
2023-03-17T02:43:30.655Z,17.48
2023-03-17T02:46:01.307Z,20.33
2023-03-17T02:48:32.987Z,13.11
2023-03-17T02:51:03.515Z,18.05
2023-03-17T02:53:33.300Z,14.44
2023-03-17T02:56:04.733Z,15.58
2023-03-17T02:58:34.640Z,13.68
2023-03-17T03:01:05.009Z,17.48
2023-03-17T03:03:34.853Z,18.05
2023-03-17T03:06:05.443Z,13.68
2023-03-17T03:08:35.725Z,15.39
2023-03-17T03:11:06.566Z,15.77
2023-03-17T03:13:37.626Z,17.48
2023-03-17T03:16:08.385Z,15.39
2023-03-17T03:18:38.389Z,15.01
2023-03-17T03:21:10.658Z,15.58
2023-03-17T03:23:40.405Z,13.87
2023-03-17T03:26:10.139Z,17.86
2023-03-17T03:28:38.668Z,14.44
2023-03-17T03:31:08.104Z,15.20
2023-03-17T03:33:35.657Z,18.43
2023-03-17T03:36:03.996Z,18.05
2023-03-17T03:38:32.250Z,18.81
2023-03-17T03:41:01.402Z,14.06
2023-03-17T03:43:29.266Z,16.34
2023-03-17T03:45:57.778Z,12.92
2023-03-17T03:48:25.952Z,16.91
2023-03-17T03:51:00.409Z,17.10
2023-03-17T03:53:30.811Z,17.29
2023-03-17T03:56:00.945Z,20.14
2023-03-17T03:58:30.963Z,14.44
2023-03-17T04:01:06.116Z,14.82
2023-03-17T04:03:38.609Z,15.01
2023-03-17T04:06:08.741Z,15.77
2023-03-17T04:08:38.521Z,15.20
2023-03-17T04:11:08.774Z,14.25
2023-03-17T04:13:38.514Z,13.11
2023-03-17T04:16:07.783Z,15.39
2023-03-17T04:18:35.743Z,15.58
2023-03-17T04:21:03.915Z,19.38
2023-03-17T04:23:32.468Z,17.48
2023-03-17T04:26:01.015Z,14.63
2023-03-17T04:28:29.130Z,15.20
2023-03-17T04:30:57.368Z,13.30
2023-03-17T04:33:26.633Z,15.20
2023-03-17T04:35:54.308Z,16.53
2023-03-17T04:38:22.722Z,17.67
2023-03-17T04:40:51.823Z,17.86
2023-03-17T04:43:19.509Z,18.05
2023-03-17T04:45:48.174Z,14.82
2023-03-17T04:48:16.756Z,13.30
2023-03-17T04:50:47.750Z,16.91
2023-03-17T04:53:16.154Z,14.44
2023-03-17T04:55:45.975Z,14.82
2023-03-17T04:58:18.190Z,12.92
2023-03-17T05:00:58.748Z,16.72
2023-03-17T05:03:30.074Z,13.87
2023-03-17T05:06:01.531Z,14.63
2023-03-17T05:08:31.705Z,11.78
2023-03-17T05:11:01.555Z,17.29
2023-03-17T05:13:31.642Z,19.76
2023-03-17T05:16:02.203Z,15.20
2023-03-17T05:18:32.037Z,18.43
2023-03-17T05:21:02.233Z,15.39
2023-03-17T05:23:32.540Z,14.82
2023-03-17T05:26:03.004Z,14.44
2023-03-17T05:28:33.636Z,15.39
2023-03-17T05:31:03.843Z,14.25
2023-03-17T05:33:33.752Z,14.82
2023-03-17T05:36:03.947Z,15.58
2023-03-17T05:38:33.766Z,15.77
2023-03-17T05:41:04.207Z,14.82
2023-03-17T05:43:34.120Z,15.58
2023-03-17T05:46:05.902Z,17.29
2023-03-17T05:48:36.310Z,14.44
2023-03-17T05:51:06.793Z,14.06
2023-03-17T05:53:37.221Z,14.44
2023-03-17T05:56:08.001Z,14.25
2023-03-17T05:58:37.890Z,15.39
2023-03-17T06:01:08.095Z,13.30
2023-03-17T06:03:41.108Z,17.10
2023-03-17T06:06:11.155Z,18.43
2023-03-17T06:08:41.277Z,13.11
2023-03-17T06:11:12.002Z,16.72
2023-03-17T06:13:42.432Z,14.06
2023-03-17T06:16:12.855Z,15.96
2023-03-17T06:18:43.572Z,12.73
2023-03-17T06:21:14.432Z,16.91
2023-03-17T06:23:44.439Z,12.16
2023-03-17T06:26:14.183Z,13.30
2023-03-17T06:28:44.109Z,14.06
2023-03-17T06:31:14.181Z,13.30
2023-03-17T06:33:44.298Z,15.39
2023-03-17T06:36:14.080Z,12.73
2023-03-17T06:38:44.056Z,13.30
2023-03-17T06:41:14.909Z,16.72
2023-03-17T06:43:44.845Z,18.62
2023-03-17T06:46:14.728Z,10.45
2023-03-17T06:48:44.726Z,14.25
2023-03-17T06:51:14.813Z,13.49
2023-03-17T06:53:44.836Z,14.06
2023-03-17T06:56:29.158Z,13.11
2023-03-17T06:58:59.951Z,16.15
2023-03-17T07:01:29.868Z,12.92
2023-03-17T07:04:01.007Z,12.92
2023-03-17T07:06:31.039Z,15.20
2023-03-17T07:09:02.474Z,16.91
2023-03-17T07:11:32.761Z,15.77
2023-03-17T07:14:02.817Z,15.77
2023-03-17T07:16:32.869Z,16.53
2023-03-17T07:19:02.017Z,13.49
2023-03-17T07:21:29.463Z,12.73
2023-03-17T07:23:58.005Z,12.54
2023-03-17T07:26:26.452Z,16.72
2023-03-17T07:28:54.773Z,14.44
2023-03-17T07:31:24.331Z,16.72
2023-03-17T07:33:51.852Z,14.44
2023-03-17T07:36:20.105Z,13.49
2023-03-17T07:38:48.660Z,14.06
2023-03-17T07:41:17.724Z,16.34
2023-03-17T07:43:45.599Z,15.39
2023-03-17T07:46:14.415Z,15.77
2023-03-17T07:48:43.527Z,15.20
2023-03-17T07:51:18.096Z,14.25
2023-03-17T07:53:53.015Z,13.11
2023-03-17T07:56:23.362Z,15.58
2023-03-17T07:58:53.279Z,14.82
2023-03-17T08:01:24.529Z,17.29
2023-03-17T08:03:56.610Z,16.53
2023-03-17T08:06:27.679Z,15.58
2023-03-17T08:08:57.563Z,15.20
2023-03-17T08:11:29.449Z,18.24
2023-03-17T08:14:01.541Z,16.91
2023-03-17T08:16:32.045Z,13.87
2023-03-17T08:19:04.078Z,14.63
2023-03-17T08:21:34.228Z,15.01
2023-03-17T08:24:05.338Z,13.68
2023-03-17T08:26:36.169Z,14.82
2023-03-17T08:29:06.095Z,14.44
2023-03-17T08:31:36.504Z,12.92
2023-03-17T08:34:07.774Z,15.39
2023-03-17T08:36:37.864Z,14.82
2023-03-17T08:39:07.801Z,14.44
2023-03-17T08:41:38.773Z,19.00
2023-03-17T08:44:09.246Z,13.11
2023-03-17T08:46:40.407Z,12.92
2023-03-17T08:49:11.030Z,12.54
2023-03-17T08:51:40.949Z,15.96
2023-03-17T08:54:12.220Z,15.01
2023-03-17T08:56:42.636Z,13.87
2023-03-17T08:59:12.732Z,14.63
2023-03-17T09:01:45.079Z,13.87
2023-03-17T09:04:15.490Z,11.40
2023-03-17T09:07:01.815Z,14.44
2023-03-17T09:09:36.518Z,15.39
2023-03-17T09:12:12.362Z,20.33
2023-03-17T09:14:44.079Z,15.58
2023-03-17T09:17:14.664Z,12.92
2023-03-17T09:19:43.492Z,11.40
2023-03-17T09:22:18.891Z,12.92
2023-03-17T09:24:49.147Z,11.97
2023-03-17T09:27:18.796Z,11.97
2023-03-17T09:29:46.618Z,14.44
2023-03-17T09:32:16.652Z,11.59
2023-03-17T09:34:46.526Z,12.35
2023-03-17T09:37:16.889Z,11.78
2023-03-17T09:39:46.688Z,12.73
2023-03-17T09:42:33.412Z,15.20
2023-03-17T09:45:14.942Z,11.97
2023-03-17T09:48:12.161Z,11.97
2023-03-17T09:51:05.717Z,11.21
2023-03-17T09:53:43.928Z,18.62
2023-03-17T09:56:18.138Z,15.77
2023-03-17T09:58:57.458Z,9.88
2023-03-17T10:01:28.166Z,12.16
2023-03-17T10:03:58.305Z,11.02
2023-03-17T10:06:41.674Z,11.97
2023-03-17T10:09:37.392Z,11.40
2023-03-17T10:12:24.717Z,14.25
2023-03-17T10:15:04.294Z,14.63
2023-03-17T10:17:42.243Z,12.73
2023-03-17T10:20:22.872Z,10.64
2023-03-17T10:22:58.325Z,11.02
2023-03-17T10:25:36.362Z,12.35
2023-03-17T10:28:29.666Z,10.26
2023-03-17T10:31:19.975Z,11.59
2023-03-17T10:33:54.395Z,12.73
2023-03-17T10:36:59.896Z,12.92
2023-03-17T10:39:32.692Z,14.44
2023-03-17T10:42:23.670Z,11.97
2023-03-17T10:44:59.250Z,10.45
2023-03-17T10:47:39.802Z,12.92
2023-03-17T10:50:22.856Z,10.45
2023-03-17T10:53:00.759Z,9.31
2023-03-17T10:55:42.629Z,9.31
2023-03-17T10:58:22.648Z,10.45
2023-03-17T11:01:07.711Z,10.45
2023-03-17T11:03:40.395Z,10.45
2023-03-17T11:06:15.822Z,12.54
2023-03-17T11:08:49.531Z,10.45
2023-03-17T11:11:34.738Z,13.49
2023-03-17T11:14:19.678Z,10.83
2023-03-17T11:17:00.982Z,10.64
2023-03-17T11:20:05.639Z,10.07
2023-03-17T11:22:42.997Z,11.21
2023-03-17T11:25:19.829Z,10.83
2023-03-17T11:28:21.049Z,11.59
2023-03-17T11:31:15.491Z,11.59
2023-03-17T11:34:05.358Z,10.45
2023-03-17T11:37:00.208Z,10.64
2023-03-17T11:40:08.593Z,9.50
2023-03-17T11:43:16.503Z,10.07
2023-03-17T11:46:11.221Z,9.69
2023-03-17T11:48:53.323Z,9.12
2023-03-17T11:52:07.673Z,10.45
2023-03-17T11:55:09.202Z,9.12
2023-03-17T11:57:53.588Z,10.45
2023-03-17T12:00:30.790Z,11.02
2023-03-17T12:03:23.232Z,9.88
2023-03-17T12:06:01.884Z,11.02
2023-03-17T12:08:54.355Z,8.93
2023-03-17T12:11:31.662Z,13.49
2023-03-17T12:14:07.608Z,11.02
2023-03-17T12:16:50.126Z,10.64
2023-03-17T12:19:28.330Z,11.02
2023-03-17T12:22:06.509Z,10.45
2023-03-17T12:24:47.062Z,9.88
2023-03-17T12:27:27.767Z,11.40
2023-03-17T12:30:05.630Z,8.36
2023-03-17T12:32:42.875Z,7.98
2023-03-17T12:35:29.948Z,11.40
2023-03-17T12:38:02.829Z,8.74
2023-03-17T12:41:02.276Z,9.88
2023-03-17T12:43:41.614Z,13.11
2023-03-17T12:46:45.944Z,9.50
2023-03-17T12:49:47.948Z,14.06
2023-03-17T12:52:50.303Z,11.21
2023-03-17T12:55:27.343Z,8.17
2023-03-17T12:58:30.807Z,9.31
2023-03-17T13:01:26.035Z,8.74
2023-03-17T13:04:27.174Z,7.98
2023-03-17T13:07:12.900Z,7.22
2023-03-17T13:10:11.668Z,8.93
2023-03-17T13:12:44.292Z,13.30
2023-03-17T13:15:36.052Z,10.45
2023-03-17T13:18:15.398Z,8.74
2023-03-17T13:20:57.432Z,10.26
2023-03-17T13:23:41.166Z,10.26
2023-03-17T13:26:20.989Z,8.93
2023-03-17T13:28:51.685Z,9.12
2023-03-17T13:31:28.487Z,11.21
2023-03-17T13:34:17.872Z,10.07
2023-03-17T13:37:19.421Z,8.93
2023-03-17T13:40:22.814Z,11.97
2023-03-17T13:43:19.859Z,9.69
2023-03-17T13:45:49.986Z,9.50
2023-03-17T13:48:36.326Z,9.12
2023-03-17T13:51:08.986Z,9.31
2023-03-17T13:53:56.938Z,8.17
2023-03-17T13:56:49.815Z,8.17
2023-03-17T13:59:40.912Z,9.50
2023-03-17T14:02:21.468Z,12.92
2023-03-17T14:05:28.283Z,8.36
2023-03-17T14:08:05.826Z,8.93
2023-03-17T14:10:38.692Z,7.60
2023-03-17T14:13:24.251Z,8.36
2023-03-17T14:16:06.716Z,9.69
2023-03-17T14:18:39.599Z,8.36
2023-03-17T14:21:33.707Z,8.93
2023-03-17T14:24:28.774Z,11.40
2023-03-17T14:27:09.905Z,10.26
2023-03-17T14:29:39.813Z,7.03
2023-03-17T14:32:17.346Z,9.31
2023-03-17T14:34:55.584Z,9.31
2023-03-17T14:37:27.386Z,8.93
2023-03-17T14:39:59.009Z,8.74
2023-03-17T14:42:31.808Z,10.26
2023-03-17T14:45:07.291Z,8.36
2023-03-17T14:47:45.481Z,8.36
2023-03-17T14:50:31.072Z,9.50
2023-03-17T14:53:01.796Z,7.60
2023-03-17T14:55:43.513Z,9.50
2023-03-17T14:58:31.747Z,11.02
2023-03-17T15:01:17.835Z,8.55
2023-03-17T15:04:05.914Z,8.36
2023-03-17T15:06:37.519Z,9.88
2023-03-17T15:09:26.118Z,11.59
2023-03-17T15:12:02.064Z,7.22
2023-03-17T15:14:34.625Z,7.22
2023-03-17T15:17:18.279Z,10.45
2023-03-17T15:19:52.609Z,9.12
2023-03-17T15:22:34.513Z,11.21
2023-03-17T15:25:29.020Z,8.74
2023-03-17T15:27:59.713Z,8.36
2023-03-17T15:30:44.267Z,9.12
2023-03-17T15:33:30.498Z,10.64
2023-03-17T15:36:00.564Z,9.12
2023-03-17T15:38:30.892Z,8.17
2023-03-17T15:41:00.712Z,10.26
2023-03-17T15:43:31.072Z,9.31
2023-03-17T15:46:10.430Z,11.40
2023-03-17T15:48:40.671Z,14.44
2023-03-17T15:51:10.897Z,11.78
2023-03-17T15:53:40.728Z,11.97
2023-03-17T15:56:21.209Z,8.93
2023-03-17T15:58:52.471Z,9.69
2023-03-17T16:01:22.420Z,9.88
2023-03-17T16:03:52.986Z,12.92
2023-03-17T16:06:24.305Z,10.83
2023-03-17T16:08:54.176Z,7.98
2023-03-17T16:11:28.659Z,12.73
2023-03-17T16:13:59.968Z,12.92
2023-03-17T16:16:42.436Z,10.45
2023-03-17T16:19:20.393Z,9.31
2023-03-17T16:21:51.568Z,10.45
2023-03-17T16:24:27.056Z,9.12
2023-03-17T16:26:56.814Z,9.50
2023-03-17T16:29:26.574Z,8.55
2023-03-17T16:31:56.533Z,8.93
2023-03-17T16:34:26.635Z,9.88
2023-03-17T16:36:57.024Z,8.36
2023-03-17T16:39:27.333Z,10.45
2023-03-17T16:41:55.182Z,9.69
2023-03-17T16:44:23.402Z,12.35
2023-03-17T16:46:52.844Z,11.40
2023-03-17T16:49:23.085Z,11.21
2023-03-17T16:51:52.743Z,10.64
2023-03-17T16:54:21.286Z,13.11
2023-03-17T16:56:49.728Z,9.88
2023-03-17T16:59:21.758Z,8.74
2023-03-17T17:01:49.426Z,11.78
2023-03-17T17:04:17.783Z,10.07
2023-03-17T17:06:46.398Z,14.63
2023-03-17T17:09:14.608Z,10.83
2023-03-17T17:11:43.105Z,8.93
2023-03-17T17:14:11.623Z,10.83
2023-03-17T17:16:40.412Z,11.59
2023-03-17T17:19:17.536Z,10.26
2023-03-17T17:21:46.063Z,13.49
2023-03-17T17:24:16.328Z,11.97
2023-03-17T17:26:46.094Z,12.16
2023-03-17T17:29:15.818Z,11.40
2023-03-17T17:31:45.871Z,11.02
2023-03-17T17:34:15.881Z,9.88
2023-03-17T17:36:45.917Z,10.26
2023-03-17T17:39:16.005Z,11.02
2023-03-17T17:41:45.834Z,15.58
2023-03-17T17:44:15.811Z,10.45
2023-03-17T17:46:45.680Z,11.97
2023-03-17T17:49:15.768Z,11.40
2023-03-17T17:51:45.512Z,11.02
2023-03-17T17:54:15.427Z,9.69
2023-03-17T17:56:47.136Z,12.73
2023-03-17T17:59:16.700Z,13.30
2023-03-17T18:01:45.023Z,12.54
2023-03-17T18:04:13.539Z,14.25
2023-03-17T18:06:42.369Z,13.11
2023-03-17T18:09:10.481Z,10.83
2023-03-17T18:11:40.333Z,15.77
2023-03-17T18:14:11.337Z,12.16
2023-03-17T18:16:41.389Z,15.20
2023-03-17T18:19:13.662Z,10.45
2023-03-17T18:21:42.350Z,12.35
2023-03-17T18:24:11.159Z,12.73
2023-03-17T18:26:39.214Z,12.35
2023-03-17T18:29:09.158Z,13.30
2023-03-17T18:31:47.726Z,16.34
2023-03-17T18:34:32.604Z,17.10
2023-03-17T18:37:02.568Z,12.73
2023-03-17T18:39:32.570Z,14.25
2023-03-17T18:42:03.584Z,12.73
2023-03-17T18:44:33.730Z,11.02
2023-03-17T18:47:04.072Z,10.45
2023-03-17T18:49:34.035Z,13.87
2023-03-17T18:52:05.102Z,13.68
2023-03-17T18:54:34.964Z,10.83
2023-03-17T18:57:05.223Z,15.01
2023-03-17T18:59:36.197Z,18.05
2023-03-17T19:02:06.806Z,17.67
2023-03-17T19:04:37.173Z,15.58
2023-03-17T19:07:07.255Z,15.58
2023-03-17T19:09:37.040Z,15.96
2023-03-17T19:12:13.274Z,16.72
2023-03-17T19:14:43.900Z,13.87
2023-03-17T19:17:13.727Z,15.39
2023-03-17T19:19:43.684Z,14.82
2023-03-17T19:22:14.069Z,17.67
2023-03-17T19:24:45.676Z,14.06
2023-03-17T19:27:16.237Z,16.34
2023-03-17T19:29:46.147Z,15.96
2023-03-17T19:32:17.191Z,15.58
2023-03-17T19:34:47.842Z,15.20
2023-03-17T19:37:17.574Z,16.34
2023-03-17T19:39:47.373Z,15.77
2023-03-17T19:42:17.489Z,12.73
2023-03-17T19:44:47.201Z,13.68
2023-03-17T19:47:17.650Z,14.06
2023-03-17T19:49:47.548Z,12.35
2023-03-17T19:52:17.304Z,16.72
2023-03-17T19:54:47.142Z,16.15
2023-03-17T19:57:19.130Z,18.24
2023-03-17T19:59:48.951Z,15.96
2023-03-17T20:02:18.985Z,15.77
2023-03-17T20:04:49.535Z,15.77
2023-03-17T20:07:19.353Z,14.06
2023-03-17T20:09:49.381Z,17.29
2023-03-17T20:12:19.752Z,14.06
2023-03-17T20:14:49.690Z,23.37
2023-03-17T20:17:19.730Z,18.43
2023-03-17T20:19:49.605Z,18.05
2023-03-17T20:22:20.267Z,29.07
2023-03-17T20:24:50.039Z,17.86
2023-03-17T20:27:20.053Z,17.67
2023-03-17T20:29:50.297Z,15.77
2023-03-17T20:32:20.226Z,20.14
2023-03-17T20:34:50.842Z,22.80
2023-03-17T20:37:20.572Z,18.24
2023-03-17T20:39:52.675Z,22.99
2023-03-17T20:42:22.767Z,18.43
2023-03-17T20:44:53.068Z,18.24
2023-03-17T20:47:23.176Z,19.76
2023-03-17T20:49:53.067Z,19.76
2023-03-17T20:52:22.810Z,21.66
2023-03-17T20:54:51.190Z,19.76
2023-03-17T20:57:19.707Z,20.52
2023-03-17T20:59:48.456Z,18.81
2023-03-17T21:02:18.301Z,20.71
2023-03-17T21:04:48.951Z,19.38
2023-03-17T21:07:21.655Z,18.24
2023-03-17T21:09:51.547Z,20.52
2023-03-17T21:12:20.493Z,19.38
2023-03-17T21:14:50.685Z,19.19
2023-03-17T21:17:18.432Z,17.10
2023-03-17T21:19:47.333Z,20.90
2023-03-17T21:22:16.125Z,19.38
2023-03-17T21:24:43.739Z,18.62
2023-03-17T21:27:12.584Z,20.33
2023-03-17T21:29:40.424Z,19.00
2023-03-17T21:32:08.676Z,17.86
2023-03-17T21:34:38.097Z,20.71
2023-03-17T21:37:05.262Z,19.19
2023-03-17T21:39:34.037Z,18.05
2023-03-17T21:42:03.873Z,21.47
2023-03-17T21:44:33.736Z,23.75
2023-03-17T21:47:03.583Z,20.90
2023-03-17T21:49:33.422Z,17.48
2023-03-17T21:52:04.406Z,18.05
2023-03-17T21:54:35.076Z,18.05
2023-03-17T21:57:04.997Z,18.05
2023-03-17T21:59:35.784Z,20.71
2023-03-17T22:02:05.293Z,21.09
2023-03-17T22:04:35.056Z,22.80
2023-03-17T22:07:05.494Z,17.10
2023-03-17T22:09:35.066Z,19.19
2023-03-17T22:12:08.735Z,23.56
2023-03-17T22:14:37.462Z,19.00
2023-03-17T22:17:08.225Z,17.10
2023-03-17T22:19:37.550Z,20.90
2023-03-17T22:22:08.376Z,21.47
2023-03-17T22:24:38.285Z,17.48
2023-03-17T22:27:08.422Z,22.04
2023-03-17T22:29:38.424Z,22.80
2023-03-17T22:32:08.734Z,21.85
2023-03-17T22:34:38.603Z,19.57
2023-03-17T22:37:08.506Z,19.38
2023-03-17T22:39:38.226Z,15.39
2023-03-17T22:42:14.440Z,17.10
2023-03-17T22:44:43.300Z,18.24
2023-03-17T22:47:10.611Z,19.76
2023-03-17T22:49:40.371Z,20.14
2023-03-17T22:52:10.253Z,20.14
2023-03-17T22:54:39.998Z,22.99
2023-03-17T22:57:09.904Z,23.56
2023-03-17T22:59:39.696Z,17.67
2023-03-17T23:02:11.421Z,18.05
2023-03-17T23:04:40.485Z,19.19
2023-03-17T23:07:11.202Z,18.81
2023-03-17T23:09:41.418Z,17.67
2023-03-17T23:12:15.989Z,17.29
2023-03-17T23:14:44.254Z,17.67
2023-03-17T23:17:13.909Z,16.72
2023-03-17T23:19:44.050Z,17.10
2023-03-17T23:22:13.944Z,19.76
2023-03-17T23:24:44.025Z,16.15
2023-03-17T23:27:13.803Z,17.67
2023-03-17T23:29:44.895Z,19.19
2023-03-17T23:32:15.463Z,20.90
2023-03-17T23:34:44.835Z,17.86
2023-03-17T23:37:15.388Z,15.96
2023-03-17T23:39:45.291Z,16.15
2023-03-17T23:42:18.169Z,18.62
2023-03-17T23:44:47.910Z,16.53
2023-03-17T23:47:18.414Z,15.77
2023-03-17T23:49:48.449Z,16.34
2023-03-17T23:52:18.159Z,19.00
2023-03-17T23:54:49.033Z,16.15
2023-03-17T23:57:19.606Z,16.15
2023-03-17T23:59:50.506Z,14.82
